sensor_id;sensor_type;location;lat;lon;timestamp;temperature;humidity
42145;DHT22;27813;43.516;11.890;2023-04-25T04:35:43;6.90;84.30
42145;DHT22;27813;43.516;11.890;2023-04-25T04:39:54;6.90;84.30
42145;DHT22;27813;43.516;11.890;2023-04-25T04:44:05;6.90;84.40
42145;DHT22;27813;43.516;11.890;2023-04-25T04:48:18;7.00;84.50
42145;DHT22;27813;43.516;11.890;2023-04-25T04:52:54;7.20;84.20
42145;DHT22;27813;43.516;11.890;2023-04-25T04:57:21;7.50;84.10
42145;DHT22;27813;43.516;11.890;2023-04-25T05:01:36;7.80;83.40
42145;DHT22;27813;43.516;11.890;2023-04-25T05:06:03;7.90;82.80
42145;DHT22;27813;43.516;11.890;2023-04-25T05:10:26;7.90;82.90
42145;DHT22;27813;43.516;11.890;2023-04-25T05:14:42;8.20;83.40
42145;DHT22;27813;43.516;11.890;2023-04-25T05:19:24;8.70;82.60
42145;DHT22;27813;43.516;11.890;2023-04-25T05:23:52;9.00;81.70
42145;DHT22;27813;43.516;11.890;2023-04-25T05:28:19;9.20;81.60
42145;DHT22;27813;43.516;11.890;2023-04-25T05:32:53;9.40;81.60
42145;DHT22;27813;43.516;11.890;2023-04-25T05:37:00;9.70;81.40
42145;DHT22;27813;43.516;11.890;2023-04-25T05:41:06;9.90;81.30
42145;DHT22;27813;43.516;11.890;2023-04-25T06:49:07;17.60;67.10
42145;DHT22;27813;43.516;11.890;2023-04-25T06:53:15;17.10;67.50
42145;DHT22;27813;43.516;11.890;2023-04-25T06:57:36;16.40;69.50
42145;DHT22;27813;43.516;11.890;2023-04-25T07:02:34;16.10;71.00
42145;DHT22;27813;43.516;11.890;2023-04-25T07:20:56;15.80;72.10
42145;DHT22;27813;43.516;11.890;2023-04-25T07:25:18;15.50;72.50
42145;DHT22;27813;43.516;11.890;2023-04-25T07:29:22;15.40;73.00
42145;DHT22;27813;43.516;11.890;2023-04-25T07:33:27;15.30;73.30
42145;DHT22;27813;43.516;11.890;2023-04-25T07:37:41;15.40;73.40
42145;DHT22;27813;43.516;11.890;2023-04-25T07:41:50;15.50;73.30
42145;DHT22;27813;43.516;11.890;2023-04-25T07:46:03;15.80;73.00
42145;DHT22;27813;43.516;11.890;2023-04-25T07:50:10;16.00;72.70
42145;DHT22;27813;43.516;11.890;2023-04-25T07:54:15;16.30;72.50
42145;DHT22;27813;43.516;11.890;2023-04-25T07:58:24;16.50;72.30
42145;DHT22;27813;43.516;11.890;2023-04-25T08:02:33;16.80;71.70
42145;DHT22;27813;43.516;11.890;2023-04-25T08:06:37;17.00;71.30
42145;DHT22;27813;43.516;11.890;2023-04-25T08:10:48;17.20;70.90
42145;DHT22;27813;43.516;11.890;2023-04-25T08:14:55;17.50;70.50
42145;DHT22;27813;43.516;11.890;2023-04-25T08:19:02;17.50;70.00
42145;DHT22;27813;43.516;11.890;2023-04-25T08:23:06;17.40;70.20
42145;DHT22;27813;43.516;11.890;2023-04-25T08:27:31;17.50;70.30
42145;DHT22;27813;43.516;11.890;2023-04-25T08:31:36;17.80;70.20
42145;DHT22;27813;43.516;11.890;2023-04-25T08:35:43;18.20;69.60
42145;DHT22;27813;43.516;11.890;2023-04-25T08:39:49;18.80;68.80
42145;DHT22;27813;43.516;11.890;2023-04-25T08:44:24;19.20;67.90
42145;DHT22;27813;43.516;11.890;2023-04-25T08:48:32;19.50;66.80
42145;DHT22;27813;43.516;11.890;2023-04-25T08:52:45;19.50;66.50
42145;DHT22;27813;43.516;11.890;2023-04-25T08:56:51;19.50;66.70
42145;DHT22;27813;43.516;11.890;2023-04-25T09:00:56;19.60;66.30
42145;DHT22;27813;43.516;11.890;2023-04-25T09:05:06;19.60;65.90
42145;DHT22;27813;43.516;11.890;2023-04-25T09:09:13;19.50;65.80
42145;DHT22;27813;43.516;11.890;2023-04-25T09:13:27;19.40;66.00
42145;DHT22;27813;43.516;11.890;2023-04-25T09:17:57;19.40;66.00
42145;DHT22;27813;43.516;11.890;2023-04-25T09:22:09;19.40;65.70
42145;DHT22;27813;43.516;11.890;2023-04-25T09:26:18;19.50;65.50
42145;DHT22;27813;43.516;11.890;2023-04-25T09:30:30;19.60;65.60
42145;DHT22;27813;43.516;11.890;2023-04-25T09:34:56;20.00;65.20
42145;DHT22;27813;43.516;11.890;2023-04-25T09:39:02;20.50;64.50
42145;DHT22;27813;43.516;11.890;2023-04-25T09:43:20;20.90;63.10
42145;DHT22;27813;43.516;11.890;2023-04-25T09:47:26;21.00;61.60
42145;DHT22;27813;43.516;11.890;2023-04-25T09:51:32;21.10;60.70
42145;DHT22;27813;43.516;11.890;2023-04-25T09:55:38;21.10;61.00
42145;DHT22;27813;43.516;11.890;2023-04-25T09:59:48;21.60;60.90
42145;DHT22;27813;43.516;11.890;2023-04-25T10:03:55;22.20;59.10
42145;DHT22;27813;43.516;11.890;2023-04-25T10:08:20;22.50;58.40
42145;DHT22;27813;43.516;11.890;2023-04-25T10:12:26;22.50;57.70
42145;DHT22;27813;43.516;11.890;2023-04-25T10:16:34;22.10;58.40
42145;DHT22;27813;43.516;11.890;2023-04-25T10:20:41;22.10;58.10
42145;DHT22;27813;43.516;11.890;2023-04-25T10:24:48;21.70;58.10
42145;DHT22;27813;43.516;11.890;2023-04-25T10:29:01;21.40;59.30
42145;DHT22;27813;43.516;11.890;2023-04-25T10:33:17;23.00;56.60
42145;DHT22;27813;43.516;11.890;2023-04-25T10:37:25;24.00;53.80
42145;DHT22;27813;43.516;11.890;2023-04-25T10:41:29;24.10;53.30
42145;DHT22;27813;43.516;11.890;2023-04-25T10:45:51;23.70;53.30
42145;DHT22;27813;43.516;11.890;2023-04-25T10:50:05;23.10;54.20
42145;DHT22;27813;43.516;11.890;2023-04-25T10:54:09;22.70;54.50
42145;DHT22;27813;43.516;11.890;2023-04-25T10:58:13;22.40;54.30
42145;DHT22;27813;43.516;11.890;2023-04-25T11:02:27;22.40;55.20
42145;DHT22;27813;43.516;11.890;2023-04-25T11:07:05;22.70;53.70
42145;DHT22;27813;43.516;11.890;2023-04-25T11:11:11;23.50;52.10
42145;DHT22;27813;43.516;11.890;2023-04-25T11:15:16;23.20;51.40
42145;DHT22;27813;43.516;11.890;2023-04-25T11:19:20;23.10;52.50
42145;DHT22;27813;43.516;11.890;2023-04-25T11:23:24;23.50;51.40
42145;DHT22;27813;43.516;11.890;2023-04-25T11:27:30;23.30;51.30
42145;DHT22;27813;43.516;11.890;2023-04-25T11:31:34;22.90;51.90
42145;DHT22;27813;43.516;11.890;2023-04-25T11:35:40;23.10;52.20
42145;DHT22;27813;43.516;11.890;2023-04-25T11:39:45;23.20;51.50
42145;DHT22;27813;43.516;11.890;2023-04-25T11:43:52;22.90;51.60
42145;DHT22;27813;43.516;11.890;2023-04-25T11:47:58;22.50;52.40
42145;DHT22;27813;43.516;11.890;2023-04-25T11:52:02;22.50;52.60
42145;DHT22;27813;43.516;11.890;2023-04-25T11:56:10;22.50;51.90
42145;DHT22;27813;43.516;11.890;2023-04-25T12:00:19;22.50;52.10
42145;DHT22;27813;43.516;11.890;2023-04-25T12:04:25;22.80;51.60
42145;DHT22;27813;43.516;11.890;2023-04-25T12:08:30;22.90;50.80
42145;DHT22;27813;43.516;11.890;2023-04-25T12:12:35;22.80;50.80
42145;DHT22;27813;43.516;11.890;2023-04-25T12:16:46;22.60;51.10
42145;DHT22;27813;43.516;11.890;2023-04-25T12:20:52;22.40;51.30
42145;DHT22;27813;43.516;11.890;2023-04-25T12:24:56;22.40;51.90
42145;DHT22;27813;43.516;11.890;2023-04-25T12:29:01;22.80;51.50
42145;DHT22;27813;43.516;11.890;2023-04-25T12:33:19;23.30;51.20
42145;DHT22;27813;43.516;11.890;2023-04-25T12:37:22;23.80;50.30
42145;DHT22;27813;43.516;11.890;2023-04-25T12:41:26;24.10;49.60
42145;DHT22;27813;43.516;11.890;2023-04-25T12:45:30;24.30;49.30
42145;DHT22;27813;43.516;11.890;2023-04-25T12:49:35;24.10;48.90
42145;DHT22;27813;43.516;11.890;2023-04-25T12:53:39;24.10;49.40
42145;DHT22;27813;43.516;11.890;2023-04-25T12:57:44;24.30;48.50
42145;DHT22;27813;43.516;11.890;2023-04-25T13:01:48;24.50;47.70
42145;DHT22;27813;43.516;11.890;2023-04-25T13:05:53;25.10;47.50
42145;DHT22;27813;43.516;11.890;2023-04-25T13:09:58;25.30;46.80
42145;DHT22;27813;43.516;11.890;2023-04-25T13:14:04;25.10;46.70
42145;DHT22;27813;43.516;11.890;2023-04-25T13:18:08;25.00;46.90
42145;DHT22;27813;43.516;11.890;2023-04-25T13:22:12;24.70;46.60
42145;DHT22;27813;43.516;11.890;2023-04-25T13:26:19;24.20;46.90
42145;DHT22;27813;43.516;11.890;2023-04-25T13:30:23;23.50;47.00
42145;DHT22;27813;43.516;11.890;2023-04-25T13:34:28;22.10;46.40
42145;DHT22;27813;43.516;11.890;2023-04-25T13:38:33;20.50;47.80
42145;DHT22;27813;43.516;11.890;2023-04-25T13:42:38;19.40;49.70
42145;DHT22;27813;43.516;11.890;2023-04-25T13:46:42;18.50;51.00
42145;DHT22;27813;43.516;11.890;2023-04-25T13:50:49;17.90;52.40
42145;DHT22;27813;43.516;11.890;2023-04-25T13:54:54;17.20;54.00
42145;DHT22;27813;43.516;11.890;2023-04-25T13:59:01;16.50;55.50
42145;DHT22;27813;43.516;11.890;2023-04-25T14:03:08;15.40;61.80
42145;DHT22;27813;43.516;11.890;2023-04-25T14:07:14;13.80;70.30
42145;DHT22;27813;43.516;11.890;2023-04-25T14:11:24;12.60;76.90
42145;DHT22;27813;43.516;11.890;2023-04-25T14:15:32;12.00;80.50
42145;DHT22;27813;43.516;11.890;2023-04-25T14:19:37;11.70;82.90
42145;DHT22;27813;43.516;11.890;2023-04-25T14:23:42;11.90;84.30
42145;DHT22;27813;43.516;11.890;2023-04-25T14:27:51;12.20;84.60
42145;DHT22;27813;43.516;11.890;2023-04-25T14:32:09;12.60;84.60
42145;DHT22;27813;43.516;11.890;2023-04-25T14:36:21;13.40;83.80
42145;DHT22;27813;43.516;11.890;2023-04-25T14:40:41;14.00;82.90
42145;DHT22;27813;43.516;11.890;2023-04-25T14:44:48;14.30;82.80
42145;DHT22;27813;43.516;11.890;2023-04-25T14:54:46;14.40;83.60
42145;DHT22;27813;43.516;11.890;2023-04-25T14:58:55;14.50;84.30
42145;DHT22;27813;43.516;11.890;2023-04-25T15:03:20;14.70;84.00
42145;DHT22;27813;43.516;11.890;2023-04-25T15:07:59;14.80;84.00
42145;DHT22;27813;43.516;11.890;2023-04-25T15:12:04;14.80;83.90
42145;DHT22;27813;43.516;11.890;2023-04-25T15:16:11;14.70;84.10
42145;DHT22;27813;43.516;11.890;2023-04-25T15:20:24;14.50;84.40
42145;DHT22;27813;43.516;11.890;2023-04-25T15:24:33;14.50;84.60
42145;DHT22;27813;43.516;11.890;2023-04-25T15:28:41;14.50;84.90
42145;DHT22;27813;43.516;11.890;2023-04-25T15:32:47;14.60;84.90
42145;DHT22;27813;43.516;11.890;2023-04-25T15:36:55;14.70;84.80
42145;DHT22;27813;43.516;11.890;2023-04-25T15:41:07;14.70;84.80
42145;DHT22;27813;43.516;11.890;2023-04-25T15:45:17;14.70;84.70
42145;DHT22;27813;43.516;11.890;2023-04-25T15:49:23;14.70;84.70
42145;DHT22;27813;43.516;11.890;2023-04-25T15:53:29;14.60;85.00
42145;DHT22;27813;43.516;11.890;2023-04-25T15:57:39;14.60;85.10
42145;DHT22;27813;43.516;11.890;2023-04-25T16:01:48;14.60;85.20
42145;DHT22;27813;43.516;11.890;2023-04-25T16:05:53;14.60;85.30
42145;DHT22;27813;43.516;11.890;2023-04-25T16:10:02;14.50;85.40
42145;DHT22;27813;43.516;11.890;2023-04-25T16:14:10;14.60;85.50
42145;DHT22;27813;43.516;11.890;2023-04-25T16:18:24;14.50;85.50
42145;DHT22;27813;43.516;11.890;2023-04-25T16:22:36;14.60;85.50
42145;DHT22;27813;43.516;11.890;2023-04-25T16:26:43;14.70;85.40
42145;DHT22;27813;43.516;11.890;2023-04-25T16:30:51;14.80;85.30
42145;DHT22;27813;43.516;11.890;2023-04-25T16:34:59;14.80;85.10
42145;DHT22;27813;43.516;11.890;2023-04-25T16:39:06;14.70;85.00
42145;DHT22;27813;43.516;11.890;2023-04-25T16:43:17;14.50;85.40
42145;DHT22;27813;43.516;11.890;2023-04-25T16:47:31;14.40;85.80
42145;DHT22;27813;43.516;11.890;2023-04-25T16:51:39;14.30;85.90
42145;DHT22;27813;43.516;11.890;2023-04-25T16:55:46;14.10;86.00
42145;DHT22;27813;43.516;11.890;2023-04-25T16:59:54;13.90;86.20
42145;DHT22;27813;43.516;11.890;2023-04-25T17:04:02;13.70;86.30
42145;DHT22;27813;43.516;11.890;2023-04-25T17:08:09;13.40;86.40
42145;DHT22;27813;43.516;11.890;2023-04-25T17:12:18;13.10;86.60
42145;DHT22;27813;43.516;11.890;2023-04-25T17:16:36;12.90;86.90
42145;DHT22;27813;43.516;11.890;2023-04-25T17:20:46;12.80;87.20
42145;DHT22;27813;43.516;11.890;2023-04-25T17:25:07;12.70;87.40
42145;DHT22;27813;43.516;11.890;2023-04-25T17:29:25;12.70;87.60
42145;DHT22;27813;43.516;11.890;2023-04-25T17:33:39;12.70;87.40
42145;DHT22;27813;43.516;11.890;2023-04-25T17:37:47;12.50;87.10
42145;DHT22;27813;43.516;11.890;2023-04-25T17:42:12;12.30;87.00
42145;DHT22;27813;43.516;11.890;2023-04-25T17:46:17;12.10;87.20
42145;DHT22;27813;43.516;11.890;2023-04-25T17:50:21;11.90;87.60
42145;DHT22;27813;43.516;11.890;2023-04-25T17:54:29;11.70;87.60
42145;DHT22;27813;43.516;11.890;2023-04-25T17:58:33;11.50;87.70
42145;DHT22;27813;43.516;11.890;2023-04-25T18:02:38;11.40;87.80
42145;DHT22;27813;43.516;11.890;2023-04-25T18:06:43;11.20;88.10
42145;DHT22;27813;43.516;11.890;2023-04-25T18:10:47;11.10;88.40
42145;DHT22;27813;43.516;11.890;2023-04-25T18:14:52;11.00;88.70
42145;DHT22;27813;43.516;11.890;2023-04-25T18:18:56;11.00;88.70
42145;DHT22;27813;43.516;11.890;2023-04-25T18:23:08;11.00;88.80
42145;DHT22;27813;43.516;11.890;2023-04-25T18:27:12;11.00;88.90
42145;DHT22;27813;43.516;11.890;2023-04-25T18:31:16;11.10;88.90
42145;DHT22;27813;43.516;11.890;2023-04-25T18:35:25;11.20;88.60
42145;DHT22;27813;43.516;11.890;2023-04-25T18:39:30;11.20;88.50
42145;DHT22;27813;43.516;11.890;2023-04-25T18:43:34;11.30;88.50
42145;DHT22;27813;43.516;11.890;2023-04-25T18:47:41;11.30;88.40
42145;DHT22;27813;43.516;11.890;2023-04-25T18:51:45;11.20;88.40
42145;DHT22;27813;43.516;11.890;2023-04-25T18:55:51;11.20;88.40
42145;DHT22;27813;43.516;11.890;2023-04-25T18:59:55;11.20;88.40
42145;DHT22;27813;43.516;11.890;2023-04-25T19:03:59;11.10;88.30
42145;DHT22;27813;43.516;11.890;2023-04-25T19:08:09;11.10;88.40
42145;DHT22;27813;43.516;11.890;2023-04-25T19:12:13;11.00;88.40
42145;DHT22;27813;43.516;11.890;2023-04-25T19:16:18;11.00;88.40
42145;DHT22;27813;43.516;11.890;2023-04-25T19:20:23;11.00;88.50
42145;DHT22;27813;43.516;11.890;2023-04-25T19:24:28;11.00;88.50
42145;DHT22;27813;43.516;11.890;2023-04-25T19:28:42;10.90;88.40
42145;DHT22;27813;43.516;11.890;2023-04-25T19:32:49;10.90;88.50
42145;DHT22;27813;43.516;11.890;2023-04-25T19:36:53;10.90;88.60
42145;DHT22;27813;43.516;11.890;2023-04-25T19:41:00;10.80;88.60
42145;DHT22;27813;43.516;11.890;2023-04-25T19:45:06;10.80;88.50
42145;DHT22;27813;43.516;11.890;2023-04-25T19:49:12;10.80;88.30
42145;DHT22;27813;43.516;11.890;2023-04-25T19:53:17;10.50;88.20
42145;DHT22;27813;43.516;11.890;2023-04-25T19:57:21;10.40;88.30
42145;DHT22;27813;43.516;11.890;2023-04-25T20:01:28;10.30;88.30
42145;DHT22;27813;43.516;11.890;2023-04-25T20:05:40;10.10;88.40
42145;DHT22;27813;43.516;11.890;2023-04-25T20:09:45;10.00;88.40
42145;DHT22;27813;43.516;11.890;2023-04-25T20:13:50;9.90;88.60
42145;DHT22;27813;43.516;11.890;2023-04-25T20:17:58;9.70;88.60
42145;DHT22;27813;43.516;11.890;2023-04-25T20:22:03;9.70;88.90
42145;DHT22;27813;43.516;11.890;2023-04-25T20:26:07;9.60;88.70
42145;DHT22;27813;43.516;11.890;2023-04-25T20:30:12;9.40;88.60
42145;DHT22;27813;43.516;11.890;2023-04-25T20:34:18;9.30;88.80
42145;DHT22;27813;43.516;11.890;2023-04-25T20:38:24;9.30;89.10
42145;DHT22;27813;43.516;11.890;2023-04-25T20:42:30;9.20;89.30
42145;DHT22;27813;43.516;11.890;2023-04-25T20:46:34;9.20;89.70
42145;DHT22;27813;43.516;11.890;2023-04-25T20:50:39;9.10;89.70
42145;DHT22;27813;43.516;11.890;2023-04-25T20:54:44;9.10;89.80
42145;DHT22;27813;43.516;11.890;2023-04-25T20:58:53;9.10;89.60
42145;DHT22;27813;43.516;11.890;2023-04-25T21:03:01;9.00;89.30
42145;DHT22;27813;43.516;11.890;2023-04-25T21:07:09;8.90;89.30
42145;DHT22;27813;43.516;11.890;2023-04-25T21:11:18;8.80;89.20
42145;DHT22;27813;43.516;11.890;2023-04-25T21:15:25;8.50;88.60
42145;DHT22;27813;43.516;11.890;2023-04-25T21:19:30;8.40;88.60
42145;DHT22;27813;43.516;11.890;2023-04-25T21:23:34;8.20;88.70
42145;DHT22;27813;43.516;11.890;2023-04-25T21:33:02;8.00;89.40
42145;DHT22;27813;43.516;11.890;2023-04-25T21:37:23;8.00;89.60
42145;DHT22;27813;43.516;11.890;2023-04-25T21:47:29;7.80;89.40
42145;DHT22;27813;43.516;11.890;2023-04-25T21:52:10;7.60;89.10
42145;DHT22;27813;43.516;11.890;2023-04-25T21:56:50;7.40;89.30
42145;DHT22;27813;43.516;11.890;2023-04-25T22:01:37;7.40;89.30
42145;DHT22;27813;43.516;11.890;2023-04-25T22:06:23;7.20;89.10
42145;DHT22;27813;43.516;11.890;2023-04-25T22:11:06;7.20;89.40
42145;DHT22;27813;43.516;11.890;2023-04-25T22:17:06;7.20;89.70
42145;DHT22;27813;43.516;11.890;2023-04-25T22:22:13;7.20;89.90
42145;DHT22;27813;43.516;11.890;2023-04-25T22:26:35;7.20;89.60
42145;DHT22;27813;43.516;11.890;2023-04-25T22:30:50;7.00;89.30
42145;DHT22;27813;43.516;11.890;2023-04-25T22:34:58;6.90;89.30
42145;DHT22;27813;43.516;11.890;2023-04-25T22:39:07;6.70;89.10
42145;DHT22;27813;43.516;11.890;2023-04-25T22:43:17;6.50;89.20
42145;DHT22;27813;43.516;11.890;2023-04-25T22:47:28;6.40;89.20
42145;DHT22;27813;43.516;11.890;2023-04-25T22:51:59;6.30;89.30
42145;DHT22;27813;43.516;11.890;2023-04-25T22:56:12;6.10;89.20
42145;DHT22;27813;43.516;11.890;2023-04-25T23:00:21;6.00;89.50
42145;DHT22;27813;43.516;11.890;2023-04-25T23:04:32;6.10;90.30
42145;DHT22;27813;43.516;11.890;2023-04-25T23:08:38;6.20;90.50
42145;DHT22;27813;43.516;11.890;2023-04-25T23:12:47;6.20;90.60
42145;DHT22;27813;43.516;11.890;2023-04-25T23:16:56;6.10;90.10
42145;DHT22;27813;43.516;11.890;2023-04-25T23:21:11;6.10;89.90
42145;DHT22;27813;43.516;11.890;2023-04-25T23:25:20;6.00;90.00
42145;DHT22;27813;43.516;11.890;2023-04-25T23:29:30;5.90;89.90
